Time;durP1;ratioP1;P1;durP2;ratioP2;P2;SDS_P1;SDS_P2;PMS_P1;PMS_P2;Temp;Humidity;BMP_temperature;BMP_pressure;BME280_temperature;BME280_humidity;BME280_pressure;Samples;Min_cycle;Max_cycle;Signal;HPM_P1;HPM_P2
2021/12/25 00:00:52;;;;;;;17.80;13.87;;;;;;;;;;5088133;28;20173;-75
2021/12/25 00:03:18;;;;;;;15.37;12.47;;;;;;;;;;5084336;28;20234;-76
2021/12/25 00:05:47;;;;;;;14.47;11.50;;;;;;;;;;5079107;28;20228;-76
2021/12/25 00:08:14;;;;;;;14.90;12.70;;;;;;;;;;5066015;28;20561;-76
2021/12/25 00:10:40;;;;;;;15.87;11.90;;;;;;;;;;5088182;28;20168;-76
2021/12/25 00:13:06;;;;;;;14.27;12.07;;;;;;;;;;5081847;28;20550;-76
2021/12/25 00:15:32;;;;;;;15.27;12.50;;;;;;;;;;5084710;28;20568;-76
2021/12/25 00:17:59;;;;;;;13.00;10.40;;;;;;;;;;5084749;28;20229;-76
2021/12/25 00:20:25;;;;;;;11.53;10.33;;;;;;;;;;5086005;28;20342;-76
2021/12/25 00:22:51;;;;;;;12.17;10.33;;;;;;;;;;5089141;28;20204;-76
2021/12/25 00:25:19;;;;;;;16.13;12.53;;;;;;;;;;5085099;28;20219;-76
2021/12/25 00:27:55;;;;;;;13.70;11.20;;;;;;;;;;5087625;28;20265;-75
2021/12/25 00:30:32;;;;;;;14.23;10.83;;;;;;;;;;5080966;28;20168;-76
2021/12/25 00:33:03;;;;;;;14.30;11.83;;;;;;;;;;5088408;28;20180;-74
2021/12/25 00:35:32;;;;;;;16.13;12.77;;;;;;;;;;5087858;28;20204;-75
2021/12/25 00:37:59;;;;;;;16.53;11.87;;;;;;;;;;5086381;28;20187;-75
2021/12/25 00:40:25;;;;;;;16.47;13.23;;;;;;;;;;5083313;28;20177;-76
2021/12/25 00:42:51;;;;;;;17.47;13.37;;;;;;;;;;5088244;28;20223;-75
2021/12/25 00:45:17;;;;;;;14.33;11.90;;;;;;;;;;5090133;28;20199;-76
2021/12/25 00:47:44;;;;;;;14.97;11.60;;;;;;;;;;5087447;28;20241;-76
2021/12/25 00:50:11;;;;;;;17.50;12.40;;;;;;;;;;5090465;28;20211;-75
2021/12/25 00:52:37;;;;;;;13.80;11.57;;;;;;;;;;5090603;28;20200;-75
2021/12/25 00:55:05;;;;;;;17.83;12.30;;;;;;;;;;5088360;28;20681;-76
2021/12/25 00:57:33;;;;;;;16.57;12.80;;;;;;;;;;5071475;28;20177;-75
2021/12/25 00:59:59;;;;;;;15.70;12.30;;;;;;;;;;5089109;28;20229;-75
2021/12/25 01:02:26;;;;;;;15.70;11.80;;;;;;;;;;5090490;28;20584;-75
2021/12/25 01:04:52;;;;;;;15.13;12.60;;;;;;;;;;5083248;28;20173;-76
2021/12/25 01:07:18;;;;;;;15.67;13.17;;;;;;;;;;5091027;28;20188;-76
2021/12/25 01:09:44;;;;;;;12.83;10.40;;;;;;;;;;5092972;28;20196;-76
2021/12/25 01:12:11;;;;;;;12.97;10.23;;;;;;;;;;5074642;28;20180;-76
2021/12/25 01:14:45;;;;;;;14.37;11.57;;;;;;;;;;5095828;28;20181;-76
2021/12/25 01:18:00;;;;;;;14.80;12.43;;;;;;;;;;5090050;28;20190;-76
2021/12/25 01:20:31;;;;;;;13.33;10.47;;;;;;;;;;5088149;28;20522;-76
2021/12/25 01:26:18;;;;;;;14.67;10.87;;;;;;;;;;5079727;28;20271;-76
2021/12/25 01:49:04;;;;;;;14.23;11.57;;;;;;;;;;5087849;28;20188;-76
2021/12/25 01:51:31;;;;;;;14.13;10.87;;;;;;;;;;5091317;28;20173;-75
2021/12/25 01:53:57;;;;;;;13.97;11.17;;;;;;;;;;5088075;28;20200;-75
2021/12/25 01:56:24;;;;;;;13.20;11.33;;;;;;;;;;5071198;28;20207;-75
2021/12/25 01:58:51;;;;;;;15.30;12.47;;;;;;;;;;5088870;28;20184;-76
2021/12/25 02:01:18;;;;;;;14.20;11.33;;;;;;;;;;5085938;28;20699;-74
2021/12/25 02:03:44;;;;;;;15.20;11.97;;;;;;;;;;5089893;28;20177;-76
2021/12/25 02:06:12;;;;;;;13.90;11.30;;;;;;;;;;5090492;28;20318;-76
2021/12/25 02:08:39;;;;;;;16.33;13.20;;;;;;;;;;5090795;28;20188;-75
2021/12/25 02:11:06;;;;;;;14.60;11.10;;;;;;;;;;5090829;28;20187;-76
2021/12/25 02:13:32;;;;;;;12.97;10.63;;;;;;;;;;5091781;28;20637;-76
2021/12/25 02:16:00;;;;;;;15.70;12.53;;;;;;;;;;5088507;28;20226;-76
2021/12/25 02:21:19;;;;;;;14.57;12.43;;;;;;;;;;5090374;28;20607;-75
2021/12/25 02:23:46;;;;;;;14.87;12.13;;;;;;;;;;5073142;28;20924;-75
2021/12/25 02:26:13;;;;;;;13.50;11.13;;;;;;;;;;5087961;28;20282;-75
2021/12/25 02:28:39;;;;;;;14.90;12.27;;;;;;;;;;5087523;28;20263;-76
2021/12/25 02:31:07;;;;;;;15.67;12.30;;;;;;;;;;5089161;28;20183;-76
2021/12/25 02:33:34;;;;;;;14.13;11.33;;;;;;;;;;5089932;28;20208;-75
2021/12/25 02:36:00;;;;;;;17.30;12.27;;;;;;;;;;5090157;28;20200;-75
2021/12/25 02:38:27;;;;;;;14.27;11.30;;;;;;;;;;5089894;28;20181;-75
2021/12/25 02:40:53;;;;;;;13.70;11.57;;;;;;;;;;5089660;28;20188;-76
2021/12/25 02:43:20;;;;;;;13.37;10.80;;;;;;;;;;5087814;28;20295;-76
2021/12/25 02:45:46;;;;;;;15.43;11.90;;;;;;;;;;5085750;28;20287;-75
2021/12/25 02:48:16;;;;;;;13.03;10.77;;;;;;;;;;5071176;28;20184;-74
2021/12/25 02:50:43;;;;;;;12.10;10.43;;;;;;;;;;5087933;28;20212;-74
2021/12/25 02:53:10;;;;;;;16.63;12.17;;;;;;;;;;5072896;28;20655;-76
2021/12/25 02:55:38;;;;;;;16.03;12.20;;;;;;;;;;5089638;28;20210;-75
2021/12/25 02:58:05;;;;;;;15.97;12.00;;;;;;;;;;5090592;28;20212;-75
2021/12/25 03:00:39;;;;;;;13.20;11.40;;;;;;;;;;5090175;28;20185;-76
2021/12/25 03:03:07;;;;;;;14.60;11.77;;;;;;;;;;5080935;28;20208;-74
2021/12/25 03:05:34;;;;;;;17.20;12.67;;;;;;;;;;5073350;28;20206;-75
2021/12/25 03:08:01;;;;;;;15.80;12.73;;;;;;;;;;5091077;28;20172;-76
2021/12/25 03:10:35;;;;;;;16.27;12.80;;;;;;;;;;5089707;28;20208;-76
2021/12/25 03:15:46;;;;;;;17.20;13.43;;;;;;;;;;5090819;28;20200;-75
2021/12/25 03:18:18;;;;;;;13.13;10.63;;;;;;;;;;5089823;28;20529;-76
2021/12/25 03:20:49;;;;;;;16.43;12.97;;;;;;;;;;5076552;28;20181;-75
2021/12/25 03:23:17;;;;;;;14.20;12.03;;;;;;;;;;5087994;28;20239;-75
2021/12/25 03:25:45;;;;;;;14.53;11.67;;;;;;;;;;5089085;28;20192;-76
2021/12/25 03:28:11;;;;;;;13.57;11.07;;;;;;;;;;5091042;28;20230;-76
2021/12/25 03:30:39;;;;;;;15.77;11.93;;;;;;;;;;5090274;28;20172;-76
2021/12/25 03:33:07;;;;;;;11.57;10.37;;;;;;;;;;5072270;28;20187;-76
2021/12/25 03:35:34;;;;;;;12.13;10.33;;;;;;;;;;5088975;28;20219;-76
2021/12/25 03:38:01;;;;;;;13.87;11.63;;;;;;;;;;5089959;28;20176;-76
2021/12/25 03:40:27;;;;;;;12.30;9.70;;;;;;;;;;5091143;28;20181;-75
2021/12/25 03:42:54;;;;;;;12.03;10.53;;;;;;;;;;5089836;28;20208;-76
2021/12/25 03:45:20;;;;;;;11.37;10.13;;;;;;;;;;5088970;28;20773;-76
2021/12/25 03:47:49;;;;;;;12.87;9.83;;;;;;;;;;5089112;28;20180;-76
2021/12/25 03:53:11;;;;;;;12.83;10.20;;;;;;;;;;5077533;28;20180;-76
2021/12/25 03:58:29;;;;;;;12.23;9.53;;;;;;;;;;5082469;28;20239;-75
2021/12/25 04:01:01;;;;;;;13.73;10.93;;;;;;;;;;5089147;28;20189;-76
2021/12/25 04:03:50;;;;;;;16.17;11.63;;;;;;;;;;5089826;28;20206;-75
2021/12/25 04:06:16;;;;;;;10.80;9.60;;;;;;;;;;5087760;28;20269;-75
2021/12/25 04:08:46;;;;;;;12.47;9.83;;;;;;;;;;5089332;28;20196;-76
2021/12/25 04:11:25;;;;;;;13.73;11.33;;;;;;;;;;5089194;28;20180;-76
2021/12/25 04:13:51;;;;;;;13.47;10.97;;;;;;;;;;5072766;28;20181;-75
2021/12/25 04:16:18;;;;;;;10.63;9.27;;;;;;;;;;5088607;28;20204;-76
2021/12/25 04:18:47;;;;;;;13.63;11.33;;;;;;;;;;5072086;28;20183;-75
2021/12/25 04:21:13;;;;;;;12.70;10.60;;;;;;;;;;5089353;28;20632;-76
2021/12/25 04:23:41;;;;;;;14.87;12.03;;;;;;;;;;5086457;28;20260;-76
2021/12/25 04:26:08;;;;;;;17.97;12.00;;;;;;;;;;5089124;28;20222;-76
2021/12/25 04:28:49;;;;;;;13.23;10.43;;;;;;;;;;5089684;28;20667;-74
2021/12/25 05:03:47;;;;;;;13.90;11.47;;;;;;;;;;5079429;28;20176;-76
2021/12/25 05:06:27;;;;;;;20.90;14.53;;;;;;;;;;5091647;28;20227;-75
2021/12/25 05:08:55;;;;;;;21.43;15.27;;;;;;;;;;5091653;28;20192;-76
2021/12/25 05:11:21;;;;;;;16.83;14.30;;;;;;;;;;5092580;28;20267;-76
2021/12/25 05:13:49;;;;;;;15.50;13.53;;;;;;;;;;5092586;28;20181;-76
2021/12/25 05:16:17;;;;;;;20.20;13.90;;;;;;;;;;5074955;28;20200;-76
2021/12/25 05:18:44;;;;;;;18.23;14.20;;;;;;;;;;5092539;28;20259;-75
2021/12/25 05:21:12;;;;;;;23.13;17.10;;;;;;;;;;5092081;28;20169;-75
2021/12/25 05:23:39;;;;;;;20.57;15.60;;;;;;;;;;5092759;28;20185;-76
2021/12/25 05:26:05;;;;;;;17.53;12.70;;;;;;;;;;5091374;28;20743;-76
2021/12/25 05:28:40;;;;;;;18.40;14.00;;;;;;;;;;5057114;28;20178;-76
2021/12/25 05:31:08;;;;;;;14.70;12.37;;;;;;;;;;5091536;28;20191;-76
2021/12/25 05:33:52;;;;;;;17.13;13.00;;;;;;;;;;5092506;28;20238;-75
2021/12/25 05:36:47;;;;;;;16.40;13.67;;;;;;;;;;5091281;28;20245;-76
2021/12/25 05:39:42;;;;;;;18.13;14.27;;;;;;;;;;5067709;28;20181;-76
2021/12/25 05:42:08;;;;;;;19.23;14.63;;;;;;;;;;5091794;28;20291;-76
2021/12/25 05:44:35;;;;;;;19.00;14.80;;;;;;;;;;5073439;28;20197;-76
2021/12/25 05:47:24;;;;;;;17.87;14.37;;;;;;;;;;5050852;28;20201;-75
2021/12/25 05:49:54;;;;;;;15.03;12.37;;;;;;;;;;5088431;28;20239;-76
2021/12/25 05:52:41;;;;;;;18.03;14.20;;;;;;;;;;5059098;28;20193;-76
2021/12/25 05:55:25;;;;;;;15.77;12.60;;;;;;;;;;5089207;28;20196;-76
2021/12/25 05:58:07;;;;;;;22.10;15.77;;;;;;;;;;5073573;28;20172;-76
2021/12/25 06:00:52;;;;;;;17.30;12.80;;;;;;;;;;5090927;28;20177;-76
2021/12/25 06:03:18;;;;;;;17.57;14.20;;;;;;;;;;5089796;28;20290;-76
2021/12/25 06:05:44;;;;;;;17.60;13.60;;;;;;;;;;5088343;28;20672;-76
2021/12/25 06:08:10;;;;;;;17.70;14.23;;;;;;;;;;5092709;28;20177;-76
2021/12/25 06:10:37;;;;;;;15.63;12.97;;;;;;;;;;5090809;28;20184;-76
2021/12/25 06:13:03;;;;;;;20.93;14.90;;;;;;;;;;5091541;28;20913;-76
2021/12/25 06:15:36;;;;;;;21.87;15.93;;;;;;;;;;5072757;28;20295;-76
2021/12/25 06:18:14;;;;;;;19.50;14.77;;;;;;;;;;5075463;28;20192;-76
2021/12/25 06:20:54;;;;;;;18.00;13.77;;;;;;;;;;5074180;28;20188;-76
2021/12/25 06:23:47;;;;;;;16.30;13.30;;;;;;;;;;5076871;28;20220;-75
2021/12/25 06:26:39;;;;;;;19.87;13.73;;;;;;;;;;5083994;28;20333;-76
2021/12/25 06:29:14;;;;;;;19.63;14.33;;;;;;;;;;5089408;28;20271;-76
2021/12/25 06:31:57;;;;;;;18.00;13.80;;;;;;;;;;5089683;28;20303;-75
2021/12/25 06:34:44;;;;;;;18.00;13.70;;;;;;;;;;5089635;28;20204;-75
2021/12/25 06:37:14;;;;;;;14.00;12.43;;;;;;;;;;5091630;28;20183;-75
2021/12/25 06:40:07;;;;;;;15.00;11.03;;;;;;;;;;5088705;28;20521;-76
2021/12/25 06:42:39;;;;;;;13.00;9.97;;;;;;;;;;5075282;28;20205;-76
2021/12/25 06:45:05;;;;;;;12.37;10.60;;;;;;;;;;5084141;28;20571;-75
2021/12/25 06:47:32;;;;;;;12.37;11.00;;;;;;;;;;5087278;28;20176;-75
2021/12/25 06:50:02;;;;;;;12.07;10.07;;;;;;;;;;5087269;28;20688;-76
2021/12/25 06:52:47;;;;;;;11.13;9.77;;;;;;;;;;5087874;28;20242;-75
2021/12/25 06:55:31;;;;;;;13.80;11.23;;;;;;;;;;5089274;28;20568;-74
2021/12/25 06:58:10;;;;;;;16.13;13.10;;;;;;;;;;5075225;28;20184;-75
2021/12/25 07:00:36;;;;;;;12.20;10.67;;;;;;;;;;5089044;28;20298;-76
2021/12/25 07:03:04;;;;;;;12.00;10.13;;;;;;;;;;5088854;28;20200;-75
2021/12/25 07:05:49;;;;;;;12.03;10.70;;;;;;;;;;5090543;28;20219;-75
2021/12/25 07:08:51;;;;;;;15.67;11.40;;;;;;;;;;5046926;28;20193;-77
2021/12/25 07:11:43;;;;;;;18.77;14.13;;;;;;;;;;5084367;28;20664;-75
2021/12/25 07:14:27;;;;;;;10.60;9.50;;;;;;;;;;5090485;28;20711;-76
2021/12/25 07:17:14;;;;;;;11.87;9.97;;;;;;;;;;5062694;28;20262;-75
2021/12/25 07:19:57;;;;;;;9.47;8.27;;;;;;;;;;5089172;28;20245;-75
2021/12/25 07:22:52;;;;;;;8.67;6.87;;;;;;;;;;5090889;28;20299;-76
2021/12/25 07:25:34;;;;;;;9.43;7.10;;;;;;;;;;5089779;28;20226;-76
2021/12/25 07:28:09;;;;;;;10.33;8.47;;;;;;;;;;5090599;28;20202;-75
2021/12/25 07:30:35;;;;;;;15.23;12.43;;;;;;;;;;5090889;28;20189;-75
2021/12/25 07:33:02;;;;;;;12.73;10.70;;;;;;;;;;5090565;28;20192;-76
2021/12/25 07:35:28;;;;;;;12.50;10.30;;;;;;;;;;5089670;28;20707;-76
2021/12/25 07:37:55;;;;;;;13.70;11.50;;;;;;;;;;5090364;28;20200;-76
2021/12/25 07:40:21;;;;;;;15.77;10.97;;;;;;;;;;5090654;28;20584;-75
2021/12/25 07:42:47;;;;;;;14.40;11.67;;;;;;;;;;5091367;28;20291;-76
2021/12/25 07:45:32;;;;;;;10.27;8.93;;;;;;;;;;5090064;28;20250;-76
2021/12/25 07:48:01;;;;;;;10.23;9.23;;;;;;;;;;5084914;28;20180;-76
2021/12/25 07:50:30;;;;;;;14.10;11.60;;;;;;;;;;5090529;28;20175;-75
2021/12/25 07:52:56;;;;;;;13.03;11.37;;;;;;;;;;5088763;28;20188;-75
2021/12/25 07:55:22;;;;;;;15.67;11.23;;;;;;;;;;5088508;28;20208;-75
2021/12/25 07:57:48;;;;;;;15.50;11.90;;;;;;;;;;5090314;28;20736;-76
2021/12/25 08:00:15;;;;;;;18.33;11.90;;;;;;;;;;5090518;28;20235;-76
2021/12/25 08:02:42;;;;;;;16.27;12.60;;;;;;;;;;5090560;28;20200;-75
2021/12/25 08:05:08;;;;;;;11.63;10.43;;;;;;;;;;5089807;28;20196;-76
2021/12/25 08:07:35;;;;;;;18.43;12.40;;;;;;;;;;5088464;28;20185;-76
2021/12/25 08:10:34;;;;;;;15.57;11.93;;;;;;;;;;5089563;28;20172;-76
2021/12/25 08:12:54;;;;;;;19.10;13.77;;;;;;;;;;5086999;28;20239;-76
2021/12/25 08:15:22;;;;;;;15.50;12.90;;;;;;;;;;5086017;28;20242;-76
2021/12/25 08:17:48;;;;;;;14.80;12.63;;;;;;;;;;5090621;28;20544;-75
2021/12/25 08:20:31;;;;;;;12.53;11.00;;;;;;;;;;5089053;28;20180;-73
2021/12/25 08:23:16;;;;;;;12.93;11.57;;;;;;;;;;5088005;28;20208;-75
2021/12/25 08:26:02;;;;;;;13.60;12.13;;;;;;;;;;5087200;28;20427;-75
2021/12/25 08:28:57;;;;;;;11.20;10.00;;;;;;;;;;5052559;28;20226;-76
2021/12/25 08:31:42;;;;;;;13.10;11.80;;;;;;;;;;5094050;28;20242;-74
2021/12/25 08:34:42;;;;;;;12.43;10.63;;;;;;;;;;5061264;28;20277;-75
2021/12/25 08:37:19;;;;;;;11.43;10.27;;;;;;;;;;5081497;28;20192;-74
2021/12/25 08:39:45;;;;;;;16.70;14.03;;;;;;;;;;5085667;28;20192;-76
2021/12/25 08:42:11;;;;;;;14.13;12.63;;;;;;;;;;5094207;28;20241;-76
2021/12/25 08:44:51;;;;;;;14.43;12.93;;;;;;;;;;5092217;28;20184;-76
2021/12/25 08:47:18;;;;;;;12.47;11.17;;;;;;;;;;5091348;28;20191;-74
2021/12/25 08:49:44;;;;;;;15.87;13.10;;;;;;;;;;5092415;28;20180;-76
2021/12/25 08:52:12;;;;;;;19.10;15.80;;;;;;;;;;5092795;28;20705;-76
2021/12/25 08:54:39;;;;;;;18.10;15.10;;;;;;;;;;5092578;28;20185;-76
2021/12/25 08:57:06;;;;;;;13.27;11.87;;;;;;;;;;5092498;28;20176;-76
2021/12/25 08:59:33;;;;;;;12.47;11.17;;;;;;;;;;5089985;28;20225;-76
2021/12/25 09:02:02;;;;;;;12.23;11.00;;;;;;;;;;5093287;28;20205;-75
2021/12/25 09:04:28;;;;;;;15.03;12.57;;;;;;;;;;5092615;28;20179;-75
2021/12/25 09:06:54;;;;;;;16.10;13.83;;;;;;;;;;5093214;28;20251;-76
2021/12/25 09:09:21;;;;;;;14.83;13.33;;;;;;;;;;5089557;28;20173;-75
2021/12/25 09:11:47;;;;;;;14.90;12.77;;;;;;;;;;5092214;28;20176;-77
2021/12/25 09:14:13;;;;;;;11.90;10.67;;;;;;;;;;5094545;28;20207;-80
2021/12/25 09:16:39;;;;;;;12.23;10.57;;;;;;;;;;5075740;28;20219;-76
2021/12/25 09:19:06;;;;;;;11.27;9.80;;;;;;;;;;5074358;28;20190;-76
2021/12/25 09:21:32;;;;;;;13.30;10.83;;;;;;;;;;5091423;28;20212;-78
2021/12/25 09:23:59;;;;;;;13.33;11.17;;;;;;;;;;5092590;28;20235;-78
2021/12/25 09:26:25;;;;;;;13.83;10.83;;;;;;;;;;5093194;28;20287;-78
2021/12/25 09:28:51;;;;;;;29.37;18.50;;;;;;;;;;5092730;28;20593;-77
2021/12/25 09:31:17;;;;;;;18.40;15.00;;;;;;;;;;5091815;28;20245;-79
2021/12/25 09:33:44;;;;;;;18.10;13.13;;;;;;;;;;5090853;28;20204;-77
2021/12/25 09:36:11;;;;;;;17.87;13.70;;;;;;;;;;5090798;28;20235;-77
2021/12/25 09:38:37;;;;;;;15.20;12.57;;;;;;;;;;5075398;28;20854;-77
2021/12/25 09:41:04;;;;;;;12.67;10.30;;;;;;;;;;5074119;28;20180;-77
2021/12/25 09:43:31;;;;;;;13.63;10.90;;;;;;;;;;5092910;28;20208;-77
2021/12/25 09:45:57;;;;;;;13.57;9.73;;;;;;;;;;5071915;28;20215;-77
2021/12/25 09:48:24;;;;;;;11.57;9.07;;;;;;;;;;5093676;28;20271;-78
2021/12/25 09:50:50;;;;;;;13.47;9.07;;;;;;;;;;5094036;28;20638;-78
2021/12/25 09:53:18;;;;;;;10.83;8.40;;;;;;;;;;5076213;28;20267;-77
2021/12/25 09:55:44;;;;;;;10.33;8.37;;;;;;;;;;5055780;28;20204;-79
2021/12/25 09:58:11;;;;;;;10.63;8.83;;;;;;;;;;5056016;28;20193;-77
2021/12/25 10:00:40;;;;;;;10.57;8.57;;;;;;;;;;5074895;28;20184;-77
2021/12/25 10:03:06;;;;;;;12.77;9.30;;;;;;;;;;5088484;28;20208;-77
2021/12/25 10:05:34;;;;;;;16.13;10.50;;;;;;;;;;5088562;28;20199;-78
2021/12/25 10:08:08;;;;;;;10.97;8.47;;;;;;;;;;5085474;28;20195;-78
2021/12/25 10:10:36;;;;;;;11.60;8.83;;;;;;;;;;5068334;28;20180;-77
2021/12/25 10:13:02;;;;;;;9.83;7.60;;;;;;;;;;5089033;28;20180;-78
2021/12/25 10:15:29;;;;;;;9.30;7.10;;;;;;;;;;5088719;28;20237;-80
2021/12/25 10:17:58;;;;;;;8.90;7.10;;;;;;;;;;5071771;28;20189;-80
2021/12/25 10:20:28;;;;;;;10.87;7.63;;;;;;;;;;5088013;28;20183;-84
2021/12/25 10:23:11;;;;;;;10.60;7.80;;;;;;;;;;5085529;28;20656;-81
2021/12/25 10:25:44;;;;;;;8.47;7.07;;;;;;;;;;5050101;28;20208;-78
2021/12/25 10:28:11;;;;;;;8.50;6.50;;;;;;;;;;5087346;28;20185;-79
2021/12/25 10:30:44;;;;;;;7.77;6.33;;;;;;;;;;5088994;28;20196;-78
2021/12/25 10:33:50;;;;;;;11.17;6.90;;;;;;;;;;5085777;28;20183;-82
2021/12/25 10:36:33;;;;;;;8.13;6.20;;;;;;;;;;5021594;28;20222;-78
2021/12/25 10:38:59;;;;;;;8.57;6.83;;;;;;;;;;5082464;28;20219;-79
2021/12/25 10:41:25;;;;;;;7.17;6.07;;;;;;;;;;5090191;28;20683;-78
2021/12/25 10:43:53;;;;;;;6.57;5.13;;;;;;;;;;5088031;28;20185;-78
2021/12/25 10:46:20;;;;;;;7.50;6.20;;;;;;;;;;5087788;28;20919;-77
2021/12/25 10:48:46;;;;;;;6.83;5.47;;;;;;;;;;5084216;28;20188;-78
2021/12/25 10:51:23;;;;;;;5.73;5.13;;;;;;;;;;5087709;28;20520;-76
2021/12/25 10:53:51;;;;;;;6.87;5.70;;;;;;;;;;5087555;28;20173;-78
2021/12/25 10:56:20;;;;;;;7.13;5.40;;;;;;;;;;5089614;28;20188;-76
2021/12/25 10:58:46;;;;;;;6.07;5.47;;;;;;;;;;5088095;28;20271;-76
2021/12/25 11:01:17;;;;;;;6.47;5.53;;;;;;;;;;5083126;28;20174;-77
2021/12/25 11:03:44;;;;;;;5.90;5.20;;;;;;;;;;5086864;28;20289;-76
2021/12/25 11:06:13;;;;;;;6.13;4.83;;;;;;;;;;5088954;28;20192;-77
2021/12/25 11:08:40;;;;;;;7.53;5.67;;;;;;;;;;5084839;28;20661;-77
2021/12/25 11:11:06;;;;;;;8.80;5.33;;;;;;;;;;5088994;28;20225;-77
2021/12/25 11:13:35;;;;;;;5.57;4.97;;;;;;;;;;5088335;28;20176;-76
2021/12/25 11:16:05;;;;;;;6.90;5.77;;;;;;;;;;5086505;28;20284;-82
2021/12/25 11:18:33;;;;;;;7.17;5.97;;;;;;;;;;5085152;28;20671;-78
2021/12/25 11:20:59;;;;;;;7.23;5.60;;;;;;;;;;5087823;28;20181;-80
2021/12/25 11:23:28;;;;;;;6.97;5.47;;;;;;;;;;5086084;28;20216;-80
2021/12/25 11:25:54;;;;;;;8.57;5.73;;;;;;;;;;5070208;28;20249;-79
2021/12/25 11:28:20;;;;;;;6.93;5.20;;;;;;;;;;5091787;28;20183;-78
2021/12/25 11:30:49;;;;;;;6.83;5.37;;;;;;;;;;5073362;28;20183;-78
2021/12/25 11:33:16;;;;;;;5.97;4.90;;;;;;;;;;5088357;28;20172;-80
2021/12/25 11:35:42;;;;;;;5.37;4.80;;;;;;;;;;5062520;28;20212;-79
2021/12/25 11:38:10;;;;;;;6.20;5.10;;;;;;;;;;5088925;28;20556;-78
2021/12/25 11:40:39;;;;;;;5.43;4.50;;;;;;;;;;5069705;28;20185;-77
2021/12/25 11:43:05;;;;;;;5.77;4.83;;;;;;;;;;5092567;28;20231;-79
2021/12/25 11:45:36;;;;;;;4.83;4.33;;;;;;;;;;5058012;28;20291;-77
2021/12/25 11:48:12;;;;;;;4.50;4.10;;;;;;;;;;5056547;28;20651;-78
2021/12/25 11:50:42;;;;;;;4.03;3.63;;;;;;;;;;5071819;28;20559;-78
2021/12/25 11:53:41;;;;;;;5.50;4.70;;;;;;;;;;5073420;28;21371;-77
2021/12/25 11:58:40;;;;;;;7.83;5.37;;;;;;;;;;5073156;28;20184;-77
2021/12/25 12:01:35;;;;;;;7.33;6.07;;;;;;;;;;5055328;28;20204;-77
2021/12/25 12:04:03;;;;;;;6.90;5.80;;;;;;;;;;5062860;28;20232;-78
2021/12/25 12:06:48;;;;;;;8.27;7.07;;;;;;;;;;5088546;28;20203;-78
2021/12/25 12:09:22;;;;;;;6.87;6.00;;;;;;;;;;5076360;28;20203;-78
2021/12/25 12:12:13;;;;;;;8.10;6.60;;;;;;;;;;5088007;28;20781;-79
2021/12/25 12:15:14;;;;;;;8.43;7.23;;;;;;;;;;5089639;28;20184;-77
2021/12/25 12:18:20;;;;;;;8.47;7.23;;;;;;;;;;5088457;28;20180;-78
2021/12/25 12:20:47;;;;;;;7.67;6.43;;;;;;;;;;5085604;28;20270;-77
2021/12/25 12:23:40;;;;;;;8.23;6.10;;;;;;;;;;5085968;28;20220;-78
2021/12/25 12:26:09;;;;;;;5.13;4.60;;;;;;;;;;5086949;28;20185;-77
2021/12/25 12:28:43;;;;;;;4.73;4.23;;;;;;;;;;5086911;28;20230;-77
2021/12/25 12:31:29;;;;;;;4.30;3.80;;;;;;;;;;5085018;28;20180;-77
2021/12/25 12:33:56;;;;;;;3.70;3.40;;;;;;;;;;5083751;28;20288;-77
2021/12/25 12:36:23;;;;;;;4.00;3.60;;;;;;;;;;5085465;28;20200;-77
2021/12/25 12:38:54;;;;;;;4.23;3.60;;;;;;;;;;5082242;28;20184;-77
2021/12/25 12:41:27;;;;;;;4.13;3.40;;;;;;;;;;5075330;28;20249;-77
2021/12/25 12:44:07;;;;;;;4.30;3.43;;;;;;;;;;5085929;28;20299;-77
2021/12/25 12:46:53;;;;;;;4.30;3.90;;;;;;;;;;5085710;28;20200;-77
2021/12/25 12:49:20;;;;;;;4.37;3.60;;;;;;;;;;5085684;28;20184;-77
2021/12/25 12:52:05;;;;;;;5.70;3.57;;;;;;;;;;5086403;28;20173;-77
2021/12/25 12:54:45;;;;;;;6.03;3.83;;;;;;;;;;5082726;28;20195;-77
2021/12/25 12:57:17;;;;;;;5.90;4.33;;;;;;;;;;5083499;28;20264;-77
2021/12/25 12:59:44;;;;;;;5.17;4.10;;;;;;;;;;5084518;28;20184;-78
2021/12/25 13:02:11;;;;;;;5.80;4.30;;;;;;;;;;5084419;28;20216;-77
2021/12/25 13:04:41;;;;;;;5.13;3.83;;;;;;;;;;5083024;28;20184;-78
2021/12/25 13:07:14;;;;;;;3.50;3.10;;;;;;;;;;5084373;28;20691;-77
2021/12/25 13:09:52;;;;;;;4.53;3.80;;;;;;;;;;5083150;28;20649;-77
2021/12/25 13:12:39;;;;;;;4.00;3.50;;;;;;;;;;5085365;28;20601;-77
2021/12/25 13:15:10;;;;;;;3.40;2.93;;;;;;;;;;5083395;28;20646;-78
2021/12/25 13:17:37;;;;;;;4.80;3.50;;;;;;;;;;5083047;28;20664;-78
2021/12/25 13:20:03;;;;;;;3.60;3.30;;;;;;;;;;5083567;28;20208;-78
2021/12/25 13:22:30;;;;;;;4.43;3.60;;;;;;;;;;5049185;28;20273;-77
2021/12/25 13:25:03;;;;;;;3.27;2.90;;;;;;;;;;5084679;28;20176;-77
2021/12/25 13:27:29;;;;;;;3.93;3.53;;;;;;;;;;5066727;28;20596;-77
2021/12/25 13:29:55;;;;;;;3.87;3.47;;;;;;;;;;5068621;28;20187;-77
2021/12/25 13:32:26;;;;;;;3.90;3.10;;;;;;;;;;5086913;28;20187;-77
2021/12/25 13:34:52;;;;;;;4.73;3.50;;;;;;;;;;5083509;28;20241;-77
2021/12/25 13:37:19;;;;;;;4.50;3.40;;;;;;;;;;5083767;28;20535;-77
2021/12/25 13:39:45;;;;;;;3.40;3.10;;;;;;;;;;5052020;28;20192;-77
2021/12/25 13:42:13;;;;;;;4.60;3.30;;;;;;;;;;5086335;28;20261;-77
2021/12/25 13:44:40;;;;;;;3.70;3.17;;;;;;;;;;5084542;28;20259;-77
2021/12/25 13:47:06;;;;;;;4.30;3.90;;;;;;;;;;5065917;28;20276;-77
2021/12/25 13:49:41;;;;;;;5.13;4.10;;;;;;;;;;5085326;28;20199;-77
2021/12/25 13:52:22;;;;;;;4.00;3.60;;;;;;;;;;5086220;28;20960;-77
2021/12/25 13:54:49;;;;;;;4.07;3.57;;;;;;;;;;5074601;28;20354;-78
2021/12/25 13:57:18;;;;;;;4.27;3.80;;;;;;;;;;5084979;28;20188;-77
2021/12/25 13:59:50;;;;;;;4.97;3.80;;;;;;;;;;5084538;28;20188;-76
2021/12/25 14:02:16;;;;;;;5.40;4.57;;;;;;;;;;5085448;28;20197;-80
2021/12/25 14:04:44;;;;;;;4.70;3.73;;;;;;;;;;5084765;28;20177;-77
2021/12/25 14:07:11;;;;;;;5.37;3.90;;;;;;;;;;5083388;28;20191;-75
2021/12/25 14:09:37;;;;;;;4.13;3.63;;;;;;;;;;5083394;28;20196;-75
2021/12/25 14:12:03;;;;;;;4.43;3.40;;;;;;;;;;5082608;28;20247;-77
2021/12/25 14:14:31;;;;;;;5.83;4.73;;;;;;;;;;5076435;28;20189;-76
2021/12/25 14:16:58;;;;;;;5.50;3.67;;;;;;;;;;5084571;28;20214;-74
2021/12/25 14:19:26;;;;;;;5.13;3.73;;;;;;;;;;5081712;28;20188;-77
2021/12/25 14:21:53;;;;;;;5.13;4.50;;;;;;;;;;5082032;28;20180;-79
2021/12/25 14:24:20;;;;;;;5.10;3.87;;;;;;;;;;5085385;28;20181;-80
2021/12/25 14:26:46;;;;;;;3.93;3.50;;;;;;;;;;5080004;28;20204;-80
2021/12/25 14:29:23;;;;;;;5.60;3.83;;;;;;;;;;5081078;28;20177;-80
2021/12/25 14:31:49;;;;;;;4.40;3.73;;;;;;;;;;5067282;28;20195;-77
2021/12/25 14:34:15;;;;;;;3.93;3.50;;;;;;;;;;5085417;28;20212;-75
2021/12/25 14:36:42;;;;;;;4.20;3.77;;;;;;;;;;5082487;28;20200;-77
2021/12/25 14:39:13;;;;;;;4.70;4.20;;;;;;;;;;5079649;28;20173;-77
2021/12/25 14:41:39;;;;;;;4.10;3.70;;;;;;;;;;5086421;28;20220;-78
2021/12/25 14:44:15;;;;;;;4.27;3.73;;;;;;;;;;5087462;28;20180;-76
2021/12/25 14:46:42;;;;;;;4.00;3.60;;;;;;;;;;5090147;28;20241;-79
2021/12/25 14:49:08;;;;;;;4.00;3.50;;;;;;;;;;5086858;28;20589;-76
2021/12/25 14:51:37;;;;;;;4.10;3.70;;;;;;;;;;5082397;28;20200;-76
2021/12/25 14:54:04;;;;;;;4.57;4.17;;;;;;;;;;5087106;28;20219;-76
2021/12/25 14:56:41;;;;;;;4.67;3.70;;;;;;;;;;5089035;28;20243;-76
2021/12/25 14:59:19;;;;;;;4.60;3.93;;;;;;;;;;5090251;28;20184;-76
2021/12/25 15:01:46;;;;;;;5.07;4.33;;;;;;;;;;5084313;28;20392;-76
2021/12/25 15:04:18;;;;;;;4.80;4.27;;;;;;;;;;5089412;28;20184;-75
2021/12/25 15:06:47;;;;;;;6.13;4.80;;;;;;;;;;5068006;28;20197;-76
2021/12/25 15:09:18;;;;;;;5.43;4.30;;;;;;;;;;5085293;28;20180;-76
2021/12/25 15:11:53;;;;;;;5.43;4.93;;;;;;;;;;5083357;28;20200;-76
2021/12/25 15:14:24;;;;;;;5.90;4.50;;;;;;;;;;5087003;28;20176;-76
2021/12/25 15:16:52;;;;;;;5.50;4.50;;;;;;;;;;5089495;28;20208;-75
2021/12/25 15:19:25;;;;;;;4.57;4.10;;;;;;;;;;5089699;28;20459;-76
2021/12/25 15:21:52;;;;;;;5.50;4.33;;;;;;;;;;5083657;28;20679;-75
2021/12/25 15:24:20;;;;;;;8.10;5.47;;;;;;;;;;5081092;28;20230;-75
2021/12/25 15:26:49;;;;;;;6.17;4.37;;;;;;;;;;5084955;28;20204;-75
2021/12/25 15:29:15;;;;;;;5.10;4.60;;;;;;;;;;5086892;28;20183;-75
2021/12/25 15:31:42;;;;;;;7.13;5.30;;;;;;;;;;5088359;28;20531;-75
2021/12/25 15:34:11;;;;;;;5.03;4.53;;;;;;;;;;5084582;28;20177;-75
2021/12/25 15:36:42;;;;;;;5.47;4.70;;;;;;;;;;5086361;28;20668;-75
2021/12/25 15:39:20;;;;;;;5.57;4.93;;;;;;;;;;5087917;28;20172;-75
2021/12/25 15:41:47;;;;;;;5.13;4.30;;;;;;;;;;5076789;28;20180;-75
2021/12/25 15:44:15;;;;;;;6.37;4.90;;;;;;;;;;5079508;28;20656;-75
2021/12/25 15:46:41;;;;;;;7.23;5.40;;;;;;;;;;5088012;28;20260;-75
2021/12/25 15:49:07;;;;;;;6.17;5.00;;;;;;;;;;5082494;28;20168;-77
2021/12/25 15:51:34;;;;;;;6.27;5.40;;;;;;;;;;5084646;28;20173;-77
2021/12/25 15:54:00;;;;;;;5.60;4.90;;;;;;;;;;5092000;28;20184;-76
2021/12/25 15:56:27;;;;;;;7.83;5.87;;;;;;;;;;5078882;28;20242;-77
2021/12/25 15:58:54;;;;;;;6.27;5.60;;;;;;;;;;5087737;28;20769;-75
2021/12/25 16:01:20;;;;;;;5.53;5.03;;;;;;;;;;5085637;28;20183;-78